Time;durP1;ratioP1;P1;durP2;ratioP2;P2;SDS_P1;SDS_P2;PMS_P1;PMS_P2;Temp;Humidity;BMP_temperature;BMP_pressure;BME280_temperature;BME280_humidity;BME280_pressure;Samples;Min_cycle;Max_cycle;Signal;HPM_P1;HPM_P2
2023/09/26 00:00:34;;;;;;;9.60;5.10;;;;;;;17.08;55.54;98031.44;5048932;28;20781;-71
2023/09/26 00:02:59;;;;;;;11.20;8.60;;;;;;;17.00;55.77;98029.63;5050470;28;20715;-71
2023/09/26 00:05:25;;;;;;;14.97;11.03;;;;;;;16.98;55.88;98026.34;5049448;28;20190;-72
2023/09/26 00:07:51;;;;;;;17.00;10.60;;;;;;;16.97;55.97;98028.16;5052283;28;20259;-71
2023/09/26 00:10:16;;;;;;;8.30;6.20;;;;;;;16.93;56.01;98026.00;5058451;28;20218;-68
2023/09/26 00:12:42;;;;;;;13.97;9.87;;;;;;;16.88;56.37;98022.06;5051654;28;20486;-70
2023/09/26 00:15:08;;;;;;;12.87;10.53;;;;;;;16.89;56.18;98022.88;5060245;28;20246;-70
2023/09/26 00:17:34;;;;;;;9.73;7.30;;;;;;;16.86;56.17;98018.75;5052611;28;20256;-70
2023/09/26 00:19:59;;;;;;;6.87;4.40;;;;;;;16.83;56.18;98028.88;5056553;28;20236;-70
2023/09/26 00:22:25;;;;;;;3.53;3.23;;;;;;;16.83;56.26;98018.28;5064211;28;20183;-70
2023/09/26 00:24:51;;;;;;;7.63;4.10;;;;;;;16.80;55.96;98014.16;5051899;28;20207;-69
2023/09/26 00:27:17;;;;;;;7.93;5.43;;;;;;;16.72;56.40;98022.97;5047271;28;20199;-70
2023/09/26 00:29:44;;;;;;;17.93;13.73;;;;;;;16.79;56.50;98019.59;5051892;28;20493;-70
2023/09/26 00:32:10;;;;;;;15.83;11.30;;;;;;;16.80;56.63;98014.16;5055575;28;20453;-69
2023/09/26 00:34:35;;;;;;;10.13;7.83;;;;;;;16.74;56.77;98014.84;5056697;28;20524;-69
2023/09/26 00:37:00;;;;;;;4.53;4.00;;;;;;;16.79;56.45;98017.81;5049113;28;20245;-70
2023/09/26 00:39:26;;;;;;;14.63;13.03;;;;;;;16.76;56.43;98019.97;5047447;28;20206;-70
2023/09/26 00:41:51;;;;;;;12.80;8.90;;;;;;;16.75;56.28;98016.50;5052315;28;20666;-72
2023/09/26 00:44:17;;;;;;;18.20;13.30;;;;;;;16.71;56.11;98016.00;5051220;28;20651;-71
2023/09/26 00:46:42;;;;;;;13.70;11.43;;;;;;;16.68;56.44;98013.69;5047577;28;20599;-71
2023/09/26 00:49:10;;;;;;;5.70;3.87;;;;;;;16.69;56.25;98011.91;5049785;28;20222;-71
2023/09/26 00:51:37;;;;;;;5.87;4.03;;;;;;;16.69;56.00;98015.34;5047612;28;20199;-70
2023/09/26 00:54:03;;;;;;;27.13;20.70;;;;;;;16.60;56.34;98013.75;5048331;28;20782;-69
2023/09/26 00:56:28;;;;;;;21.67;17.10;;;;;;;16.59;56.55;98012.09;5047282;28;20460;-69
2023/09/26 00:58:54;;;;;;;6.10;5.50;;;;;;;16.55;56.65;98010.78;5045052;28;20198;-69
2023/09/26 01:01:24;;;;;;;6.53;4.50;;;;;;;16.50;56.40;98007.84;5053810;28;20191;-70
2023/09/26 01:03:49;;;;;;;3.93;3.53;;;;;;;16.49;56.38;98014.13;5054753;28;20715;-69
2023/09/26 01:06:15;;;;;;;5.40;4.00;;;;;;;16.48;56.16;98015.09;5047783;28;20563;-69
2023/09/26 01:08:41;;;;;;;7.80;6.90;;;;;;;16.43;56.43;98011.16;5047457;28;20240;-69
2023/09/26 01:11:08;;;;;;;10.03;6.57;;;;;;;16.49;56.90;98011.47;5047541;28;20210;-69
2023/09/26 01:13:33;;;;;;;4.77;4.20;;;;;;;16.37;56.79;98019.78;5047688;28;20278;-69
2023/09/26 01:16:02;;;;;;;6.80;3.90;;;;;;;16.33;57.09;98013.16;5047916;28;20490;-70
2023/09/26 01:18:27;;;;;;;10.73;4.17;;;;;;;16.28;57.20;98008.38;5046325;28;20227;-69
2023/09/26 01:20:53;;;;;;;6.67;4.83;;;;;;;16.29;57.25;98017.13;5048106;28;20480;-70
2023/09/26 01:23:22;;;;;;;4.23;3.83;;;;;;;16.23;57.51;98012.53;5055348;28;20228;-70
2023/09/26 01:25:48;;;;;;;3.63;3.33;;;;;;;16.31;56.83;98009.84;5046146;28;20191;-68
2023/09/26 01:28:17;;;;;;;4.60;4.20;;;;;;;16.34;56.28;98014.81;5053900;28;20426;-68
2023/09/26 01:30:43;;;;;;;5.00;3.80;;;;;;;16.24;56.57;98001.78;5055439;28;20210;-72
2023/09/26 01:33:11;;;;;;;4.77;4.37;;;;;;;16.22;56.89;98010.88;5080668;28;20493;-70
2023/09/26 01:35:36;;;;;;;5.47;4.00;;;;;;;16.18;57.29;98004.25;5050813;28;20614;-70
2023/09/26 01:38:02;;;;;;;6.23;5.60;;;;;;;16.21;57.88;98006.56;5048947;28;20510;-69
2023/09/26 01:40:27;;;;;;;15.73;10.10;;;;;;;16.20;57.84;98015.50;5047564;28;20207;-70
2023/09/26 01:42:53;;;;;;;4.97;4.23;;;;;;;16.21;57.82;98019.81;5048196;28;20182;-71
2023/09/26 01:45:18;;;;;;;4.20;3.80;;;;;;;16.10;57.32;98016.53;5052486;28;20190;-69
2023/09/26 01:47:46;;;;;;;10.33;8.40;;;;;;;16.14;57.32;98017.00;5055219;28;20205;-70
2023/09/26 01:50:12;;;;;;;20.67;13.63;;;;;;;16.15;57.25;98009.88;5053755;28;20271;-69
2023/09/26 01:52:38;;;;;;;6.37;4.50;;;;;;;16.07;57.22;98013.38;5055469;28;20429;-68
2023/09/26 01:55:10;;;;;;;4.60;3.93;;;;;;;16.08;57.57;98007.94;5052727;28;20201;-68
2023/09/26 01:57:35;;;;;;;11.23;8.60;;;;;;;16.12;57.31;98009.25;5049015;28;20683;-69
2023/09/26 02:00:05;;;;;;;7.57;4.87;;;;;;;16.16;57.33;98008.91;5056430;28;20540;-70
2023/09/26 02:02:31;;;;;;;4.10;3.70;;;;;;;16.09;57.16;98000.81;5054018;28;20195;-70
2023/09/26 02:04:56;;;;;;;4.50;4.10;;;;;;;16.01;57.10;97999.00;5063591;28;20432;-68
2023/09/26 02:07:22;;;;;;;8.10;4.80;;;;;;;16.00;57.40;97997.38;5052040;28;20234;-68
2023/09/26 02:09:47;;;;;;;19.27;14.67;;;;;;;16.01;57.12;98001.63;5058266;28;20246;-69
2023/09/26 02:12:13;;;;;;;13.13;9.27;;;;;;;15.93;57.69;97999.03;5053180;28;20286;-69
2023/09/26 02:14:38;;;;;;;4.43;3.80;;;;;;;15.88;57.66;97998.72;5059936;28;20687;-68
2023/09/26 02:17:04;;;;;;;3.80;3.50;;;;;;;15.90;57.67;98002.84;5055064;28;20221;-68
2023/09/26 02:19:29;;;;;;;3.97;3.67;;;;;;;15.96;57.29;98002.16;5059964;28;20690;-69
2023/09/26 02:21:54;;;;;;;10.77;9.37;;;;;;;15.96;56.94;97999.50;5050763;28;20190;-68
2023/09/26 02:24:20;;;;;;;12.70;7.37;;;;;;;15.99;57.02;97995.72;5051316;28;20722;-70
2023/09/26 02:26:46;;;;;;;5.77;5.27;;;;;;;16.00;57.13;97991.25;5049831;28;20786;-69
2023/09/26 02:29:11;;;;;;;4.50;4.10;;;;;;;16.04;56.98;97995.22;5052900;28;20195;-68
2023/09/26 02:31:36;;;;;;;9.60;6.87;;;;;;;15.99;57.24;97993.06;5050604;28;20210;-70
2023/09/26 02:34:02;;;;;;;4.30;3.90;;;;;;;15.96;57.28;97996.84;5059367;28;20195;-69
2023/09/26 02:36:27;;;;;;;4.40;3.97;;;;;;;15.91;57.29;97999.19;5050932;28;20206;-69
2023/09/26 02:38:53;;;;;;;4.00;3.70;;;;;;;15.85;57.47;97991.91;5058611;28;20199;-68
2023/09/26 02:41:18;;;;;;;10.80;8.50;;;;;;;15.84;57.49;97992.88;5052979;28;20278;-70
2023/09/26 02:43:44;;;;;;;21.97;15.00;;;;;;;15.90;57.70;97986.13;5048376;28;20199;-71
2023/09/26 02:46:09;;;;;;;15.80;10.20;;;;;;;15.86;57.97;97984.84;5046910;28;20187;-71
2023/09/26 02:48:35;;;;;;;4.80;4.07;;;;;;;15.74;58.08;97979.84;5043600;28;20230;-70
2023/09/26 02:51:04;;;;;;;4.33;3.93;;;;;;;15.75;57.83;97984.13;5054330;28;20235;-70
2023/09/26 02:53:29;;;;;;;4.50;4.10;;;;;;;15.71;57.77;97977.53;5050976;28;20563;-71
2023/09/26 02:55:55;;;;;;;13.40;5.10;;;;;;;15.73;57.47;97980.00;5049214;28;20552;-71
2023/09/26 02:58:20;;;;;;;6.30;5.70;;;;;;;15.74;57.66;97979.03;5055597;28;20561;-70
2023/09/26 03:00:50;;;;;;;11.20;8.60;;;;;;;15.76;57.62;97977.84;5046255;28;20213;-71
2023/09/26 03:03:15;;;;;;;7.17;6.00;;;;;;;15.74;57.44;97974.56;5065124;28;20198;-70
2023/09/26 03:05:48;;;;;;;5.10;4.60;;;;;;;15.65;57.80;97984.31;5052141;28;20436;-70
2023/09/26 03:08:14;;;;;;;4.70;4.30;;;;;;;15.61;57.84;97977.69;5050955;28;20571;-69
2023/09/26 03:10:40;;;;;;;4.17;3.77;;;;;;;15.58;57.57;97979.84;5055487;28;20461;-69
2023/09/26 03:13:06;;;;;;;5.20;4.23;;;;;;;15.54;57.60;97974.09;5047393;28;20241;-71
2023/09/26 03:15:32;;;;;;;5.53;4.00;;;;;;;15.55;57.60;97978.38;5055617;28;20987;-71
2023/09/26 03:17:57;;;;;;;4.63;4.27;;;;;;;15.60;57.55;97975.25;5052303;28;20433;-68
2023/09/26 03:20:22;;;;;;;6.90;4.50;;;;;;;15.61;57.58;97979.53;5050480;28;20211;-69
2023/09/26 03:22:49;;;;;;;8.00;5.40;;;;;;;15.67;57.64;97976.22;5049584;28;20230;-70
2023/09/26 03:25:14;;;;;;;10.30;7.70;;;;;;;15.64;57.86;97976.53;5050441;28;20195;-69
2023/09/26 03:27:41;;;;;;;4.77;4.17;;;;;;;15.66;57.77;97979.84;5049555;28;20432;-69
2023/09/26 03:30:08;;;;;;;5.20;4.17;;;;;;;15.55;57.71;97988.94;5049653;28;20222;-70
2023/09/26 03:32:33;;;;;;;4.97;4.13;;;;;;;15.50;57.87;97989.41;5049803;28;20446;-70
2023/09/26 03:34:59;;;;;;;5.60;4.40;;;;;;;15.49;57.49;97989.59;5056295;28;20499;-69
2023/09/26 03:37:24;;;;;;;4.70;4.30;;;;;;;15.47;57.62;97987.13;5046873;28;20227;-69
2023/09/26 03:39:50;;;;;;;4.70;4.30;;;;;;;15.43;57.74;97990.25;5049324;28;20805;-69
2023/09/26 03:42:15;;;;;;;6.17;4.47;;;;;;;15.44;58.04;97987.44;5051436;28;20297;-69
2023/09/26 03:44:43;;;;;;;5.77;5.10;;;;;;;15.48;58.16;97978.22;5049172;28;20333;-69
2023/09/26 03:47:09;;;;;;;5.10;4.67;;;;;;;15.54;58.05;97975.88;5049365;28;20322;-69
2023/09/26 03:49:34;;;;;;;6.60;5.80;;;;;;;15.48;58.35;97977.38;5048274;28;20457;-70
2023/09/26 03:52:00;;;;;;;8.40;6.67;;;;;;;15.47;58.27;97971.28;5044921;28;20202;-69
2023/09/26 03:54:28;;;;;;;6.53;5.00;;;;;;;15.46;58.21;97974.06;5054910;28;20229;-70
2023/09/26 03:56:54;;;;;;;6.83;6.17;;;;;;;15.43;57.89;97977.06;5038993;28;20679;-69
2023/09/26 03:59:19;;;;;;;10.90;7.00;;;;;;;15.45;57.82;97975.91;5049016;28;20533;-70
2023/09/26 04:01:47;;;;;;;7.70;5.80;;;;;;;15.38;57.89;97977.53;5050775;28;20214;-70
2023/09/26 04:04:13;;;;;;;5.33;4.77;;;;;;;15.36;58.32;97974.25;5056974;28;20207;-70
2023/09/26 04:06:38;;;;;;;7.00;4.80;;;;;;;15.31;58.49;97981.81;5056296;28;20982;-71
2023/09/26 04:09:04;;;;;;;8.57;4.93;;;;;;;15.41;58.37;97979.84;5048707;28;20194;-69
2023/09/26 04:11:30;;;;;;;5.40;4.90;;;;;;;15.44;57.92;97971.59;5047146;28;20207;-70
2023/09/26 04:13:55;;;;;;;8.00;5.50;;;;;;;15.44;58.22;97987.44;5054637;28;20194;-69
2023/09/26 04:16:21;;;;;;;9.70;6.50;;;;;;;15.42;58.42;97983.31;5042126;28;20676;-70
2023/09/26 04:18:46;;;;;;;8.10;6.53;;;;;;;15.41;58.63;97984.31;5044386;28;20194;-69
2023/09/26 04:21:12;;;;;;;7.30;6.57;;;;;;;15.46;59.10;97972.25;5048410;28;20214;-69
2023/09/26 04:23:38;;;;;;;10.73;7.63;;;;;;;15.48;59.04;97967.66;5055796;28;20226;-70
2023/09/26 04:26:17;;;;;;;8.67;6.20;;;;;;;15.49;58.88;97965.81;5045540;28;20187;-69
2023/09/26 04:28:44;;;;;;;6.93;6.00;;;;;;;15.52;58.93;97965.50;5048463;28;20191;-70
2023/09/26 04:31:16;;;;;;;6.73;6.03;;;;;;;15.52;59.18;97958.38;5048343;28;20456;-71
2023/09/26 04:33:42;;;;;;;7.00;5.47;;;;;;;15.50;59.32;97973.56;5054879;28;20429;-71
2023/09/26 04:36:08;;;;;;;8.53;6.23;;;;;;;15.50;59.32;97964.81;5047144;28;20819;-71
2023/09/26 04:38:33;;;;;;;7.27;6.57;;;;;;;15.47;59.37;97968.63;5048037;28;20429;-70
2023/09/26 04:41:02;;;;;;;9.17;7.13;;;;;;;15.44;59.53;97965.47;5054184;28;20214;-71
2023/09/26 04:43:29;;;;;;;8.00;5.77;;;;;;;15.39;59.49;97958.03;5050938;28;20191;-70
2023/09/26 04:45:55;;;;;;;7.77;5.40;;;;;;;15.42;59.25;97963.00;5050827;28;20825;-69
2023/09/26 04:48:20;;;;;;;6.80;5.70;;;;;;;15.41;59.19;97971.09;5056281;28;20442;-69
2023/09/26 04:50:45;;;;;;;8.97;5.63;;;;;;;15.42;59.52;97963.00;5043468;28;20230;-71
2023/09/26 04:53:11;;;;;;;8.40;7.10;;;;;;;15.44;59.36;97961.03;5047287;28;20198;-71
2023/09/26 04:55:36;;;;;;;11.43;6.00;;;;;;;15.46;59.76;97963.50;5048126;28;20222;-71
2023/09/26 04:58:02;;;;;;;7.63;6.40;;;;;;;15.43;59.78;97956.75;5047387;28;20244;-69
2023/09/26 05:00:29;;;;;;;6.77;6.03;;;;;;;15.42;59.51;97972.75;5047673;28;20695;-70
2023/09/26 05:02:54;;;;;;;6.30;5.10;;;;;;;15.40;59.29;97975.53;5049082;28;20425;-71
2023/09/26 05:05:20;;;;;;;7.20;6.07;;;;;;;15.33;59.12;97969.28;5045152;28;20471;-68
2023/09/26 05:07:46;;;;;;;10.97;6.63;;;;;;;15.34;58.88;97969.09;5047325;28;20198;-69
2023/09/26 05:10:12;;;;;;;9.40;5.20;;;;;;;15.30;58.92;97964.31;5058302;28;20267;-71
2023/09/26 05:12:40;;;;;;;6.93;6.20;;;;;;;15.34;58.75;97965.66;5048287;28;21006;-71
2023/09/26 05:15:14;;;;;;;8.30;5.60;;;;;;;15.35;58.69;97959.38;5048818;28;20492;-71
2023/09/26 05:17:47;;;;;;;10.30;6.87;;;;;;;15.29;58.80;97973.22;5057319;28;20441;-70
2023/09/26 05:20:12;;;;;;;7.43;5.47;;;;;;;15.27;58.85;97975.22;5046751;28;20448;-70
2023/09/26 05:22:44;;;;;;;8.30;6.23;;;;;;;15.26;58.73;97978.84;5046112;28;20950;-70
2023/09/26 05:25:10;;;;;;;10.00;5.70;;;;;;;15.30;58.43;97985.44;5078645;28;20208;-72
2023/09/26 05:27:37;;;;;;;8.43;5.87;;;;;;;15.30;58.48;97986.28;5047300;28;20445;-70
2023/09/26 05:30:03;;;;;;;9.10;6.37;;;;;;;15.29;58.61;97983.78;5054700;28;20717;-70
2023/09/26 05:32:28;;;;;;;7.53;6.00;;;;;;;15.27;58.51;97981.31;5046466;28;20457;-72
2023/09/26 05:34:54;;;;;;;7.73;6.20;;;;;;;15.26;58.64;97981.47;5046421;28;20427;-68
2023/09/26 05:37:20;;;;;;;8.10;6.30;;;;;;;15.20;58.94;97980.31;5047446;28;20314;-70
2023/09/26 05:39:45;;;;;;;9.50;6.57;;;;;;;15.20;59.12;97981.16;5058734;28;20230;-69
2023/09/26 05:42:10;;;;;;;6.73;5.40;;;;;;;15.27;58.74;97983.13;5049899;28;20282;-69
2023/09/26 05:44:37;;;;;;;8.83;6.07;;;;;;;15.42;58.79;97981.50;5046566;28;20206;-70
2023/09/26 05:47:03;;;;;;;6.60;5.77;;;;;;;15.67;58.28;97981.50;5048074;28;20183;-69
2023/09/26 05:49:29;;;;;;;8.80;6.27;;;;;;;15.95;57.12;97978.53;5047789;28;20908;-69
2023/09/26 05:51:54;;;;;;;9.33;5.93;;;;;;;16.13;56.74;97976.50;5040464;28;20440;-69
2023/09/26 05:54:20;;;;;;;7.73;6.17;;;;;;;16.32;56.16;97978.97;5055285;28;20270;-69
2023/09/26 05:56:45;;;;;;;10.83;6.87;;;;;;;16.33;56.13;97981.41;5050748;28;20269;-69
2023/09/26 05:59:11;;;;;;;7.90;6.67;;;;;;;16.25;56.52;97979.63;5057546;28;20190;-69
2023/09/26 06:01:36;;;;;;;12.40;8.93;;;;;;;16.37;56.66;97969.50;5054200;28;20182;-70
2023/09/26 06:04:02;;;;;;;23.27;17.10;;;;;;;16.59;57.28;97969.75;5056770;28;20547;-70
2023/09/26 06:06:27;;;;;;;12.30;9.10;;;;;;;16.63;56.91;97976.34;5058903;28;20277;-70
2023/09/26 06:08:53;;;;;;;13.90;9.87;;;;;;;16.68;57.14;97968.72;5046541;28;20199;-70
2023/09/26 06:11:18;;;;;;;15.80;9.60;;;;;;;16.72;56.82;97975.31;5048706;28;20199;-69
2023/09/26 06:13:44;;;;;;;17.67;9.40;;;;;;;16.78;56.46;97978.25;5050134;28;20259;-70
2023/09/26 06:16:10;;;;;;;11.37;8.23;;;;;;;16.81;56.60;97975.25;5041579;28;20621;-69
2023/09/26 06:18:35;;;;;;;11.93;8.50;;;;;;;16.90;56.37;97971.56;5046565;28;20678;-69
2023/09/26 06:21:03;;;;;;;15.47;8.53;;;;;;;17.01;56.14;97968.56;5043796;28;20932;-69
2023/09/26 06:23:30;;;;;;;17.40;8.27;;;;;;;17.17;56.27;97972.09;5043833;28;20194;-68
2023/09/26 06:25:57;;;;;;;13.53;6.83;;;;;;;17.34;55.82;97973.66;5037911;28;20432;-68
2023/09/26 06:28:23;;;;;;;9.00;6.90;;;;;;;17.50;55.56;97974.53;5033923;28;20425;-69
2023/09/26 06:30:48;;;;;;;6.40;5.37;;;;;;;17.49;55.28;97976.34;5040903;28;20464;-68
2023/09/26 06:33:13;;;;;;;6.50;5.90;;;;;;;17.55;55.54;97980.09;5036364;28;20244;-71
2023/09/26 06:35:39;;;;;;;8.67;5.97;;;;;;;17.62;55.59;97970.47;5048641;28;20269;-71
2023/09/26 06:38:04;;;;;;;7.07;6.30;;;;;;;17.66;56.08;97978.88;5032997;28;20602;-69
2023/09/26 06:40:30;;;;;;;10.37;5.43;;;;;;;17.78;55.08;97976.59;5045660;28;20639;-69
2023/09/26 06:42:56;;;;;;;6.97;5.40;;;;;;;17.81;55.74;97982.38;5047967;28;20208;-70
2023/09/26 06:45:22;;;;;;;6.10;5.50;;;;;;;17.84;54.44;97981.19;5046097;28;20774;-68
2023/09/26 06:47:48;;;;;;;7.63;5.60;;;;;;;17.86;54.93;97981.84;5051073;28;20568;-71
2023/09/26 06:50:13;;;;;;;10.13;6.60;;;;;;;17.96;55.51;97976.25;5048154;28;20257;-69
2023/09/26 06:52:39;;;;;;;8.93;6.50;;;;;;;18.13;55.52;97981.44;5046712;28;20202;-70
2023/09/26 06:55:10;;;;;;;9.33;5.33;;;;;;;18.26;54.95;97973.66;5041751;28;20606;-71
2023/09/26 06:57:36;;;;;;;8.37;6.27;;;;;;;18.22;54.77;97975.88;5047740;28;20186;-71
2023/09/26 07:00:05;;;;;;;5.67;5.07;;;;;;;18.23;54.45;97988.13;5044719;28;20437;-70
2023/09/26 07:02:31;;;;;;;9.63;6.20;;;;;;;18.22;55.61;97978.53;5045651;28;20528;-72
2023/09/26 07:04:56;;;;;;;7.33;5.80;;;;;;;18.41;55.36;97971.84;5045249;28;20524;-71
2023/09/26 07:07:23;;;;;;;7.67;5.90;;;;;;;18.61;55.05;97973.91;5039597;28;20191;-70
2023/09/26 07:09:48;;;;;;;6.77;6.17;;;;;;;18.77;54.87;97972.06;5045300;28;20256;-70
2023/09/26 07:12:14;;;;;;;7.13;5.40;;;;;;;18.84;54.06;97979.09;5045003;28;20473;-70
2023/09/26 07:14:40;;;;;;;5.50;4.97;;;;;;;18.91;53.85;97970.38;5045193;28;20182;-70
2023/09/26 07:17:09;;;;;;;6.43;4.97;;;;;;;19.03;54.24;97977.72;5055365;28;20186;-70
2023/09/26 07:19:34;;;;;;;7.90;5.20;;;;;;;19.11;54.01;97974.13;5043330;28;20234;-69
2023/09/26 07:21:59;;;;;;;8.20;5.23;;;;;;;19.23;53.87;97977.09;5042634;28;20821;-70
2023/09/26 07:24:25;;;;;;;7.10;4.13;;;;;;;19.32;54.09;97978.63;5038340;28;20199;-69
2023/09/26 07:26:51;;;;;;;7.20;5.33;;;;;;;19.36;53.92;97980.88;5045648;28;20207;-69
2023/09/26 07:29:17;;;;;;;6.37;5.17;;;;;;;19.41;53.86;97976.66;5042474;28;21598;-70
2023/09/26 07:31:42;;;;;;;9.53;5.00;;;;;;;19.42;53.32;97974.81;5051477;28;20198;-69
2023/09/26 07:34:08;;;;;;;7.60;5.50;;;;;;;19.44;53.75;97972.81;5051001;28;20226;-71
2023/09/26 07:36:34;;;;;;;6.30;4.70;;;;;;;19.57;53.58;97972.09;5045264;28;20183;-70
2023/09/26 07:38:59;;;;;;;5.57;4.77;;;;;;;19.68;53.42;97976.88;5046474;28;20215;-69
2023/09/26 07:41:25;;;;;;;11.00;4.87;;;;;;;19.78;53.30;97968.56;5048230;28;20206;-70
2023/09/26 07:43:50;;;;;;;7.60;4.40;;;;;;;19.91;53.23;97967.91;5048144;28;20628;-69
2023/09/26 07:46:16;;;;;;;6.63;4.90;;;;;;;20.02;52.54;97974.50;5047311;28;20190;-70
2023/09/26 07:48:42;;;;;;;7.03;4.60;;;;;;;20.17;52.12;97974.38;5044787;28;20730;-69
2023/09/26 07:51:08;;;;;;;5.07;4.50;;;;;;;20.32;52.47;97977.75;5040925;28;20230;-71
2023/09/26 07:53:35;;;;;;;5.30;4.50;;;;;;;20.50;52.00;97973.75;5051072;28;20198;-71
2023/09/26 07:56:00;;;;;;;7.80;4.43;;;;;;;20.67;51.68;97972.38;5041985;28;20929;-69
2023/09/26 07:58:26;;;;;;;6.30;4.87;;;;;;;20.85;51.48;97969.25;5056061;28;20414;-69
2023/09/26 08:00:58;;;;;;;7.57;5.10;;;;;;;21.06;50.83;97966.59;5040107;28;20619;-70
2023/09/26 08:03:24;;;;;;;8.67;4.83;;;;;;;21.24;50.09;97968.69;5056447;28;20216;-70
2023/09/26 08:05:49;;;;;;;7.00;5.10;;;;;;;21.47;50.35;97971.00;5038933;28;20426;-70
2023/09/26 08:08:15;;;;;;;6.27;4.60;;;;;;;21.75;49.93;97975.34;5044882;28;20261;-69
2023/09/26 08:10:40;;;;;;;6.33;5.10;;;;;;;22.01;49.39;97966.47;5043344;28;20710;-69
2023/09/26 08:13:06;;;;;;;8.30;4.50;;;;;;;22.22;48.65;97970.75;5038257;28;20184;-70
2023/09/26 08:15:34;;;;;;;6.53;3.70;;;;;;;22.52;48.29;97962.28;5038395;28;20183;-70
2023/09/26 08:18:01;;;;;;;8.63;4.10;;;;;;;22.76;47.29;97962.59;5037424;28;20414;-70
2023/09/26 08:20:26;;;;;;;5.40;4.30;;;;;;;22.93;46.76;97972.81;5042098;28;21027;-70
2023/09/26 08:22:52;;;;;;;8.73;4.50;;;;;;;23.19;46.29;97965.69;5038682;28;20446;-69
2023/09/26 08:25:17;;;;;;;7.43;4.40;;;;;;;23.34;45.41;97970.75;5042891;28;20191;-71
2023/09/26 08:27:43;;;;;;;5.40;3.97;;;;;;;23.54;45.08;97968.75;5042780;28;20194;-71
2023/09/26 08:30:11;;;;;;;10.33;4.10;;;;;;;23.66;45.03;97968.88;5034396;28;20636;-69
2023/09/26 08:32:37;;;;;;;9.87;4.20;;;;;;;23.96;44.71;97964.72;5040126;28;20220;-70
2023/09/26 08:35:04;;;;;;;6.20;4.17;;;;;;;24.20;43.76;97961.19;5038263;28;20422;-71
2023/09/26 08:37:30;;;;;;;7.37;5.00;;;;;;;24.25;43.29;97962.38;5044866;28;20445;-70
2023/09/26 08:39:56;;;;;;;5.67;4.60;;;;;;;24.50;42.93;97954.25;5039250;28;20564;-69
2023/09/26 08:42:27;;;;;;;4.90;4.40;;;;;;;24.67;42.02;97959.81;5047437;28;20968;-70
2023/09/26 08:44:57;;;;;;;7.90;5.53;;;;;;;24.60;42.27;97959.91;5048427;28;20668;-70
2023/09/26 08:47:27;;;;;;;6.10;4.80;;;;;;;24.82;42.16;97962.97;5037358;28;20430;-70
2023/09/26 08:49:56;;;;;;;11.20;5.83;;;;;;;24.93;41.66;97955.19;5045235;28;20433;-69
2023/09/26 08:52:23;;;;;;;5.53;5.00;;;;;;;24.99;41.31;97951.63;5044206;28;20433;-70
2023/09/26 08:54:48;;;;;;;13.73;5.73;;;;;;;25.02;41.42;97951.13;5055453;28;20453;-69
2023/09/26 08:57:14;;;;;;;10.00;4.70;;;;;;;25.34;41.11;97955.44;5050830;28;20508;-70
2023/09/26 08:59:42;;;;;;;5.63;4.97;;;;;;;25.54;40.21;97952.47;5046863;28;20203;-69
2023/09/26 09:02:10;;;;;;;5.80;4.70;;;;;;;25.67;40.26;97957.63;5054135;28;20752;-70
2023/09/26 09:04:35;;;;;;;7.80;4.43;;;;;;;25.83;40.08;97957.97;5060492;28;20909;-71
2023/09/26 09:07:04;;;;;;;4.20;3.80;;;;;;;26.11;39.04;97951.94;5053004;28;20472;-70
2023/09/26 09:09:30;;;;;;;6.93;4.90;;;;;;;26.30;39.10;97951.81;5048434;28;20269;-69
2023/09/26 09:11:56;;;;;;;6.50;4.23;;;;;;;26.35;38.93;97949.19;5055707;28;21003;-70
2023/09/26 09:14:32;;;;;;;6.60;4.70;;;;;;;26.52;38.47;97950.09;5049337;28;20428;-70
2023/09/26 09:16:58;;;;;;;4.00;3.70;;;;;;;26.69;38.55;97952.06;5048060;28;20244;-70
2023/09/26 09:19:47;;;;;;;6.83;4.40;;;;;;;26.73;38.03;97937.06;5053623;28;20830;-72
2023/09/26 09:22:17;;;;;;;5.33;4.40;;;;;;;26.77;37.55;97940.13;5041060;28;20203;-71
2023/09/26 09:24:43;;;;;;;6.77;3.90;;;;;;;26.97;37.71;97942.38;5046928;28;20432;-70
2023/09/26 09:27:09;;;;;;;11.80;4.50;;;;;;;26.97;37.42;97935.13;5056034;28;20433;-73
2023/09/26 09:29:35;;;;;;;4.23;3.80;;;;;;;27.04;37.42;97935.00;5059119;28;20456;-70
2023/09/26 09:32:01;;;;;;;6.43;3.90;;;;;;;27.04;37.56;97940.38;5048284;28;20292;-70
2023/09/26 09:34:27;;;;;;;8.10;4.07;;;;;;;27.24;37.36;97939.06;5056120;28;20525;-71
2023/09/26 09:36:56;;;;;;;4.70;3.93;;;;;;;27.42;36.81;97938.88;5080681;28;20179;-70
2023/09/26 09:39:22;;;;;;;9.47;3.40;;;;;;;27.62;36.13;97940.25;5058877;28;21210;-69
2023/09/26 09:41:48;;;;;;;5.97;3.73;;;;;;;27.72;35.85;97940.41;5044420;28;20977;-72
2023/09/26 09:44:14;;;;;;;4.20;3.60;;;;;;;27.92;35.87;97941.81;5058761;28;20441;-72
2023/09/26 09:46:39;;;;;;;3.80;3.40;;;;;;;27.73;35.92;97938.56;5047690;28;20487;-70
2023/09/26 09:49:10;;;;;;;4.70;4.17;;;;;;;27.46;35.83;97943.78;5046327;28;20604;-72
2023/09/26 09:51:35;;;;;;;8.23;3.00;;;;;;;27.82;36.14;97942.47;5044744;28;20210;-70
2023/09/26 09:54:01;;;;;;;4.27;3.87;;;;;;;28.07;35.52;97932.31;5052166;28;20436;-72
2023/09/26 09:56:33;;;;;;;9.63;3.57;;;;;;;28.25;35.12;97931.22;5047505;28;20183;-72
2023/09/26 09:59:05;;;;;;;6.27;3.20;;;;;;;28.08;34.95;97936.63;5050498;28;20190;-71
2023/09/26 10:01:31;;;;;;;5.87;3.03;;;;;;;28.21;34.66;97930.91;5048708;28;20899;-71
2023/09/26 10:03:56;;;;;;;7.40;3.53;;;;;;;28.17;34.83;97932.47;5046055;28;20449;-69
2023/09/26 10:06:23;;;;;;;9.83;4.40;;;;;;;28.40;34.54;97931.44;5046170;28;20285;-70
2023/09/26 10:08:48;;;;;;;4.87;4.47;;;;;;;28.54;34.30;97931.84;5048105;28;20624;-70
2023/09/26 10:11:15;;;;;;;10.83;8.03;;;;;;;28.67;33.73;97922.53;5049647;28;20519;-70
2023/09/26 10:13:40;;;;;;;4.60;3.40;;;;;;;28.93;33.54;97915.59;5058626;28;20187;-71
2023/09/26 10:16:17;;;;;;;5.50;3.47;;;;;;;29.08;33.97;97912.22;5051478;28;20540;-72
2023/09/26 10:18:44;;;;;;;4.80;2.90;;;;;;;29.27;33.10;97909.13;5059316;28;20714;-69
2023/09/26 10:21:40;;;;;;;2.87;2.50;;;;;;;29.18;33.34;97914.19;5050643;28;20445;-70
2023/09/26 10:24:08;;;;;;;6.47;3.00;;;;;;;29.20;32.56;97911.22;5053327;28;20525;-71
2023/09/26 10:26:50;;;;;;;4.10;2.90;;;;;;;29.14;33.36;97910.38;5048566;28;20417;-70
2023/09/26 10:29:28;;;;;;;12.67;2.63;;;;;;;29.32;32.38;97901.06;5052921;28;20429;-72
2023/09/26 10:31:57;;;;;;;4.63;2.83;;;;;;;29.42;32.27;97903.88;5061136;28;20542;-71
2023/09/26 10:34:26;;;;;;;3.00;2.63;;;;;;;29.64;32.55;97904.84;5056157;28;20429;-71
2023/09/26 10:36:53;;;;;;;3.27;2.57;;;;;;;29.89;32.20;97901.50;5063966;28;20421;-72
2023/09/26 10:39:31;;;;;;;2.63;2.43;;;;;;;29.96;31.61;97901.31;5051082;28;20437;-72
2023/09/26 10:42:13;;;;;;;2.93;2.43;;;;;;;30.16;31.88;97898.69;5049151;28;20478;-72
2023/09/26 10:44:43;;;;;;;6.10;2.50;;;;;;;30.33;31.49;97890.38;5055024;28;20503;-69
2023/09/26 10:47:11;;;;;;;3.83;2.60;;;;;;;30.45;31.33;97892.84;5051175;28;21067;-69
2023/09/26 10:49:37;;;;;;;3.67;2.30;;;;;;;30.58;30.36;97880.75;5050309;28;20539;-71
2023/09/26 10:52:02;;;;;;;3.83;2.47;;;;;;;30.55;30.52;97884.00;5048783;28;20902;-71
2023/09/26 10:54:30;;;;;;;4.37;2.13;;;;;;;30.52;30.52;97884.50;5054641;28;20594;-71
2023/09/26 10:56:58;;;;;;;3.50;2.20;;;;;;;30.59;30.30;97882.38;5049280;28;20179;-71
2023/09/26 10:59:26;;;;;;;4.60;2.17;;;;;;;30.68;29.95;97879.97;5048664;28;20484;-71
2023/09/26 11:01:54;;;;;;;6.83;2.20;;;;;;;30.59;29.96;97876.16;5055860;28;20500;-71
2023/09/26 11:04:20;;;;;;;6.93;5.87;;;;;;;30.66;30.26;97874.00;5053564;28;20433;-72
2023/09/26 11:06:45;;;;;;;32.93;5.17;;;;;;;30.99;29.80;97879.19;5048792;28;20422;-72
2023/09/26 11:09:11;;;;;;;4.50;2.70;;;;;;;30.83;29.33;97875.66;5050309;28;20225;-71
2023/09/26 11:11:37;;;;;;;2.83;1.50;;;;;;;30.78;28.73;97874.56;5057208;28;20213;-72
2023/09/26 11:14:04;;;;;;;3.37;2.13;;;;;;;30.72;28.84;97886.47;5050484;28;20425;-72
2023/09/26 11:16:29;;;;;;;2.70;2.00;;;;;;;30.62;28.40;97878.34;5049578;28;20179;-71
2023/09/26 11:18:55;;;;;;;3.93;3.13;;;;;;;30.77;29.78;97874.84;5050472;28;20432;-72
2023/09/26 11:21:20;;;;;;;8.23;6.00;;;;;;;31.03;29.47;97881.09;5048691;28;20207;-71
2023/09/26 11:23:46;;;;;;;6.90;6.17;;;;;;;30.99;28.55;97879.19;5047680;28;20186;-71
2023/09/26 11:26:11;;;;;;;3.80;2.33;;;;;;;31.03;28.55;97881.09;5050104;28;20736;-72
2023/09/26 11:28:38;;;;;;;2.07;1.87;;;;;;;31.01;28.30;97877.84;5049621;28;20300;-71